Eudora, Missouri
Current Conditions -  °F | °C
As of 12:52 AM on Saturday 25 Oct 2014 (Local Time) from KSGF Reporting Station
Clear Clear  
Wind Chill: 60°   Ceiling: Unl
Heat Index: 60°   Visibility: 10mi
Dew Point: 57°   Wind: 9mph
Humidity: 90%   Direction: 200°SSW
Pressure: 30.04"   Gusts: NA
Location:  37.48°N, 93.54°W
Report Text: KSGF 250552Z 20008KT 10SM CLR 16/14 A3004 RMK AO2 SLP164 T01560139 10183 20156 402440083 58007
Loading
Personal Weather Stations






























Interactive Weather Map
Tropical Storm Tracking
New forecast layout! Learn more

10-Day Weather Forecast

Advertisements
Track Severe Weather on mobile